sensor_id;sensor_type;location;lat;lon;timestamp;P1;durP1;ratioP1;P2;durP2;ratioP2
39694;SDS011;25367;-35.352;149.036;2023-02-05T00:00:57;4.15;;;0.88;;
39694;SDS011;25367;-35.352;149.036;2023-02-05T00:03:27;3.03;;;0.70;;
39694;SDS011;25367;-35.352;149.036;2023-02-05T00:05:58;3.05;;;0.60;;
39694;SDS011;25367;-35.352;149.036;2023-02-05T00:08:27;2.72;;;0.77;;
39694;SDS011;25367;-35.352;149.036;2023-02-05T00:10:57;16.38;;;1.02;;
39694;SDS011;25367;-35.352;149.036;2023-02-05T00:13:26;12.38;;;1.67;;
39694;SDS011;25367;-35.352;149.036;2023-02-05T00:15:56;8.77;;;1.02;;
39694;SDS011;25367;-35.352;149.036;2023-02-05T00:18:25;5.38;;;1.05;;
39694;SDS011;25367;-35.352;149.036;2023-02-05T00:20:55;2.92;;;0.80;;
39694;SDS011;25367;-35.352;149.036;2023-02-05T00:23:26;10.40;;;1.00;;
39694;SDS011;25367;-35.352;149.036;2023-02-05T00:25:56;5.90;;;1.10;;
39694;SDS011;25367;-35.352;149.036;2023-02-05T00:28:25;7.60;;;1.45;;
39694;SDS011;25367;-35.352;149.036;2023-02-05T00:30:54;4.32;;;1.17;;
39694;SDS011;25367;-35.352;149.036;2023-02-05T00:33:24;10.57;;;1.73;;
39694;SDS011;25367;-35.352;149.036;2023-02-05T00:35:53;17.35;;;1.73;;
39694;SDS011;25367;-35.352;149.036;2023-02-05T00:38:25;15.50;;;2.03;;
39694;SDS011;25367;-35.352;149.036;2023-02-05T00:40:54;9.25;;;1.75;;
39694;SDS011;25367;-35.352;149.036;2023-02-05T00:43:24;13.82;;;1.83;;
39694;SDS011;25367;-35.352;149.036;2023-02-05T00:45:54;16.85;;;1.67;;
39694;SDS011;25367;-35.352;149.036;2023-02-05T00:48:24;17.35;;;1.70;;
39694;SDS011;25367;-35.352;149.036;2023-02-05T00:50:53;8.93;;;2.05;;
39694;SDS011;25367;-35.352;149.036;2023-02-05T00:53:26;10.80;;;1.85;;
39694;SDS011;25367;-35.352;149.036;2023-02-05T00:55:56;5.35;;;1.20;;
39694;SDS011;25367;-35.352;149.036;2023-02-05T00:58:25;9.60;;;1.27;;
39694;SDS011;25367;-35.352;149.036;2023-02-05T01:00:55;12.85;;;1.48;;
39694;SDS011;25367;-35.352;149.036;2023-02-05T01:03:25;10.32;;;1.63;;
39694;SDS011;25367;-35.352;149.036;2023-02-05T01:05:55;12.15;;;1.48;;
39694;SDS011;25367;-35.352;149.036;2023-02-05T01:08:28;25.23;;;1.33;;
39694;SDS011;25367;-35.352;149.036;2023-02-05T01:10:58;12.30;;;1.35;;
39694;SDS011;25367;-35.352;149.036;2023-02-05T01:13:28;5.25;;;1.35;;
39694;SDS011;25367;-35.352;149.036;2023-02-05T01:15:57;7.65;;;1.25;;
39694;SDS011;25367;-35.352;149.036;2023-02-05T01:18:27;5.93;;;1.48;;
39694;SDS011;25367;-35.352;149.036;2023-02-05T01:20:56;9.18;;;1.23;;
39694;SDS011;25367;-35.352;149.036;2023-02-05T01:23:29;27.52;;;2.15;;
39694;SDS011;25367;-35.352;149.036;2023-02-05T01:25:58;13.57;;;1.05;;
39694;SDS011;25367;-35.352;149.036;2023-02-05T01:28:28;5.38;;;1.10;;
39694;SDS011;25367;-35.352;149.036;2023-02-05T01:30:57;8.25;;;1.30;;
39694;SDS011;25367;-35.352;149.036;2023-02-05T01:33:27;25.35;;;2.28;;
39694;SDS011;25367;-35.352;149.036;2023-02-05T01:35:56;11.18;;;1.70;;
39694;SDS011;25367;-35.352;149.036;2023-02-05T01:38:29;5.95;;;1.05;;
39694;SDS011;25367;-35.352;149.036;2023-02-05T01:40:58;9.60;;;1.30;;
39694;SDS011;25367;-35.352;149.036;2023-02-05T01:43:28;7.25;;;0.95;;
39694;SDS011;25367;-35.352;149.036;2023-02-05T01:46:13;12.65;;;1.38;;
39694;SDS011;25367;-35.352;149.036;2023-02-05T01:48:49;6.75;;;1.10;;
39694;SDS011;25367;-35.352;149.036;2023-02-05T01:51:24;13.35;;;1.70;;
39694;SDS011;25367;-35.352;149.036;2023-02-05T01:53:59;14.43;;;1.33;;
39694;SDS011;25367;-35.352;149.036;2023-02-05T01:56:29;10.40;;;0.85;;
39694;SDS011;25367;-35.352;149.036;2023-02-05T01:59:03;3.58;;;0.98;;
39694;SDS011;25367;-35.352;149.036;2023-02-05T02:01:35;5.93;;;0.90;;
39694;SDS011;25367;-35.352;149.036;2023-02-05T02:04:06;10.50;;;1.38;;
39694;SDS011;25367;-35.352;149.036;2023-02-05T02:06:36;12.85;;;1.40;;
39694;SDS011;25367;-35.352;149.036;2023-02-05T02:09:10;3.63;;;0.75;;
39694;SDS011;25367;-35.352;149.036;2023-02-05T02:11:40;6.00;;;1.45;;
39694;SDS011;25367;-35.352;149.036;2023-02-05T02:14:11;10.27;;;1.05;;
39694;SDS011;25367;-35.352;149.036;2023-02-05T02:16:42;7.15;;;0.90;;
39694;SDS011;25367;-35.352;149.036;2023-02-05T02:19:13;5.75;;;1.33;;
39694;SDS011;25367;-35.352;149.036;2023-02-05T02:21:57;9.25;;;1.08;;
39694;SDS011;25367;-35.352;149.036;2023-02-05T02:25:09;7.63;;;0.90;;
39694;SDS011;25367;-35.352;149.036;2023-02-05T02:28:03;5.05;;;1.10;;
39694;SDS011;25367;-35.352;149.036;2023-02-05T02:30:39;5.43;;;1.20;;
39694;SDS011;25367;-35.352;149.036;2023-02-05T02:33:12;10.82;;;1.02;;
39694;SDS011;25367;-35.352;149.036;2023-02-05T02:35:47;14.32;;;1.52;;
39694;SDS011;25367;-35.352;149.036;2023-02-05T02:38:21;11.82;;;2.17;;
39694;SDS011;25367;-35.352;149.036;2023-02-05T02:41:00;17.23;;;1.23;;
39694;SDS011;25367;-35.352;149.036;2023-02-05T02:43:39;12.50;;;0.85;;
39694;SDS011;25367;-35.352;149.036;2023-02-05T02:46:14;14.05;;;2.05;;
39694;SDS011;25367;-35.352;149.036;2023-02-05T02:48:47;11.25;;;1.20;;
39694;SDS011;25367;-35.352;149.036;2023-02-05T02:51:19;26.48;;;2.05;;
39694;SDS011;25367;-35.352;149.036;2023-02-05T02:53:51;9.40;;;0.73;;
39694;SDS011;25367;-35.352;149.036;2023-02-05T02:56:25;10.23;;;1.52;;
39694;SDS011;25367;-35.352;149.036;2023-02-05T02:58:59;6.90;;;1.07;;
39694;SDS011;25367;-35.352;149.036;2023-02-05T03:01:34;15.90;;;1.77;;
39694;SDS011;25367;-35.352;149.036;2023-02-05T03:04:08;15.18;;;1.73;;
39694;SDS011;25367;-35.352;149.036;2023-02-05T03:06:42;10.95;;;1.48;;
39694;SDS011;25367;-35.352;149.036;2023-02-05T03:09:16;9.68;;;1.05;;
39694;SDS011;25367;-35.352;149.036;2023-02-05T03:11:53;23.25;;;1.27;;
39694;SDS011;25367;-35.352;149.036;2023-02-05T03:14:26;9.00;;;0.75;;
39694;SDS011;25367;-35.352;149.036;2023-02-05T03:19:27;4.20;;;1.38;;
39694;SDS011;25367;-35.352;149.036;2023-02-05T03:21:58;6.45;;;0.98;;
39694;SDS011;25367;-35.352;149.036;2023-02-05T03:24:29;11.77;;;1.50;;
39694;SDS011;25367;-35.352;149.036;2023-02-05T03:26:59;6.25;;;0.95;;
39694;SDS011;25367;-35.352;149.036;2023-02-05T03:29:31;7.30;;;1.10;;
39694;SDS011;25367;-35.352;149.036;2023-02-05T03:32:14;5.50;;;1.10;;
39694;SDS011;25367;-35.352;149.036;2023-02-05T03:34:57;10.27;;;1.10;;
39694;SDS011;25367;-35.352;149.036;2023-02-05T03:37:39;5.22;;;0.77;;
39694;SDS011;25367;-35.352;149.036;2023-02-05T03:40:15;10.15;;;1.00;;
39694;SDS011;25367;-35.352;149.036;2023-02-05T03:42:50;7.70;;;1.02;;
39694;SDS011;25367;-35.352;149.036;2023-02-05T03:45:31;6.25;;;0.90;;
39694;SDS011;25367;-35.352;149.036;2023-02-05T03:48:36;8.88;;;0.70;;
39694;SDS011;25367;-35.352;149.036;2023-02-05T03:51:15;8.10;;;1.25;;
39694;SDS011;25367;-35.352;149.036;2023-02-05T03:54:00;11.20;;;1.40;;
39694;SDS011;25367;-35.352;149.036;2023-02-05T03:56:39;13.07;;;1.08;;
39694;SDS011;25367;-35.352;149.036;2023-02-05T03:59:17;7.85;;;0.93;;
39694;SDS011;25367;-35.352;149.036;2023-02-05T04:01:51;9.35;;;0.75;;
39694;SDS011;25367;-35.352;149.036;2023-02-05T04:04:21;14.38;;;1.02;;
39694;SDS011;25367;-35.352;149.036;2023-02-05T04:06:52;4.80;;;0.60;;
39694;SDS011;25367;-35.352;149.036;2023-02-05T04:09:22;23.85;;;2.33;;
39694;SDS011;25367;-35.352;149.036;2023-02-05T04:11:52;15.48;;;0.95;;
39694;SDS011;25367;-35.352;149.036;2023-02-05T04:14:22;4.22;;;0.93;;
39694;SDS011;25367;-35.352;149.036;2023-02-05T04:16:55;8.77;;;0.90;;
39694;SDS011;25367;-35.352;149.036;2023-02-05T04:19:27;7.43;;;0.73;;
39694;SDS011;25367;-35.352;149.036;2023-02-05T04:21:59;10.70;;;1.02;;
39694;SDS011;25367;-35.352;149.036;2023-02-05T04:24:33;26.92;;;2.15;;
39694;SDS011;25367;-35.352;149.036;2023-02-05T04:27:03;29.55;;;1.92;;
39694;SDS011;25367;-35.352;149.036;2023-02-05T04:29:33;19.02;;;1.35;;
39694;SDS011;25367;-35.352;149.036;2023-02-05T04:32:07;21.13;;;1.23;;
39694;SDS011;25367;-35.352;149.036;2023-02-05T04:34:37;17.92;;;1.63;;
39694;SDS011;25367;-35.352;149.036;2023-02-05T04:37:09;20.40;;;1.50;;
39694;SDS011;25367;-35.352;149.036;2023-02-05T04:39:39;15.63;;;1.58;;
39694;SDS011;25367;-35.352;149.036;2023-02-05T04:42:09;20.52;;;0.88;;
39694;SDS011;25367;-35.352;149.036;2023-02-05T04:44:38;26.52;;;1.42;;
39694;SDS011;25367;-35.352;149.036;2023-02-05T04:47:11;13.82;;;1.48;;
39694;SDS011;25367;-35.352;149.036;2023-02-05T04:49:41;16.63;;;1.85;;
39694;SDS011;25367;-35.352;149.036;2023-02-05T04:52:10;23.00;;;1.63;;
39694;SDS011;25367;-35.352;149.036;2023-02-05T04:54:40;19.08;;;1.25;;
39694;SDS011;25367;-35.352;149.036;2023-02-05T04:57:09;8.27;;;0.82;;
39694;SDS011;25367;-35.352;149.036;2023-02-05T04:59:39;5.93;;;1.73;;
39694;SDS011;25367;-35.352;149.036;2023-02-05T05:02:12;2.75;;;0.65;;
39694;SDS011;25367;-35.352;149.036;2023-02-05T05:04:41;10.52;;;1.63;;
39694;SDS011;25367;-35.352;149.036;2023-02-05T05:07:11;9.85;;;1.50;;
39694;SDS011;25367;-35.352;149.036;2023-02-05T05:09:40;7.90;;;1.25;;
39694;SDS011;25367;-35.352;149.036;2023-02-05T05:12:10;12.82;;;1.10;;
39694;SDS011;25367;-35.352;149.036;2023-02-05T05:14:39;11.40;;;1.13;;
39694;SDS011;25367;-35.352;149.036;2023-02-05T05:17:12;5.70;;;0.80;;
39694;SDS011;25367;-35.352;149.036;2023-02-05T05:19:41;7.90;;;0.88;;
39694;SDS011;25367;-35.352;149.036;2023-02-05T05:22:11;3.33;;;0.85;;
39694;SDS011;25367;-35.352;149.036;2023-02-05T05:24:41;5.72;;;1.10;;
39694;SDS011;25367;-35.352;149.036;2023-02-05T05:27:10;8.63;;;1.02;;
39694;SDS011;25367;-35.352;149.036;2023-02-05T05:29:39;1.95;;;0.70;;
39694;SDS011;25367;-35.352;149.036;2023-02-05T05:32:12;4.63;;;1.00;;
39694;SDS011;25367;-35.352;149.036;2023-02-05T05:34:42;4.18;;;0.57;;
39694;SDS011;25367;-35.352;149.036;2023-02-05T05:37:11;10.40;;;0.90;;
39694;SDS011;25367;-35.352;149.036;2023-02-05T05:39:40;4.30;;;0.70;;
39694;SDS011;25367;-35.352;149.036;2023-02-05T05:42:10;9.98;;;0.93;;
39694;SDS011;25367;-35.352;149.036;2023-02-05T05:44:40;15.60;;;1.48;;
39694;SDS011;25367;-35.352;149.036;2023-02-05T05:47:11;16.27;;;0.90;;
39694;SDS011;25367;-35.352;149.036;2023-02-05T05:49:41;14.88;;;1.40;;
39694;SDS011;25367;-35.352;149.036;2023-02-05T05:52:11;18.08;;;2.15;;
39694;SDS011;25367;-35.352;149.036;2023-02-05T05:54:40;15.10;;;1.70;;
39694;SDS011;25367;-35.352;149.036;2023-02-05T05:57:10;15.13;;;1.23;;
39694;SDS011;25367;-35.352;149.036;2023-02-05T05:59:39;25.13;;;1.63;;
39694;SDS011;25367;-35.352;149.036;2023-02-05T06:02:08;20.55;;;1.58;;
39694;SDS011;25367;-35.352;149.036;2023-02-05T06:04:40;15.60;;;1.67;;
39694;SDS011;25367;-35.352;149.036;2023-02-05T06:07:09;30.90;;;2.05;;
39694;SDS011;25367;-35.352;149.036;2023-02-05T06:09:39;24.42;;;1.58;;
39694;SDS011;25367;-35.352;149.036;2023-02-05T06:12:08;16.63;;;1.52;;
39694;SDS011;25367;-35.352;149.036;2023-02-05T06:14:37;18.05;;;1.67;;
39694;SDS011;25367;-35.352;149.036;2023-02-05T06:17:07;25.80;;;2.20;;
39694;SDS011;25367;-35.352;149.036;2023-02-05T06:19:39;24.88;;;1.75;;
39694;SDS011;25367;-35.352;149.036;2023-02-05T06:22:09;14.93;;;1.23;;
39694;SDS011;25367;-35.352;149.036;2023-02-05T06:24:38;15.43;;;1.92;;
39694;SDS011;25367;-35.352;149.036;2023-02-05T06:27:08;21.73;;;1.50;;
39694;SDS011;25367;-35.352;149.036;2023-02-05T06:29:37;15.25;;;1.52;;
39694;SDS011;25367;-35.352;149.036;2023-02-05T06:32:07;12.82;;;1.27;;
39694;SDS011;25367;-35.352;149.036;2023-02-05T06:34:38;11.80;;;1.30;;
39694;SDS011;25367;-35.352;149.036;2023-02-05T06:37:08;14.73;;;1.25;;
39694;SDS011;25367;-35.352;149.036;2023-02-05T06:39:37;9.27;;;1.08;;
39694;SDS011;25367;-35.352;149.036;2023-02-05T06:42:06;16.90;;;2.15;;
39694;SDS011;25367;-35.352;149.036;2023-02-05T06:44:36;13.13;;;1.70;;
39694;SDS011;25367;-35.352;149.036;2023-02-05T06:47:05;17.13;;;1.80;;
39694;SDS011;25367;-35.352;149.036;2023-02-05T06:49:34;18.75;;;2.25;;
39694;SDS011;25367;-35.352;149.036;2023-02-05T06:52:07;10.88;;;1.10;;
39694;SDS011;25367;-35.352;149.036;2023-02-05T06:54:37;12.40;;;1.00;;
39694;SDS011;25367;-35.352;149.036;2023-02-05T06:57:06;6.22;;;0.93;;
39694;SDS011;25367;-35.352;149.036;2023-02-05T06:59:35;7.60;;;0.90;;
39694;SDS011;25367;-35.352;149.036;2023-02-05T07:02:05;16.92;;;2.15;;
39694;SDS011;25367;-35.352;149.036;2023-02-05T07:04:36;9.80;;;1.10;;
39694;SDS011;25367;-35.352;149.036;2023-02-05T07:07:08;11.30;;;1.63;;
39694;SDS011;25367;-35.352;149.036;2023-02-05T07:09:38;12.95;;;1.55;;
39694;SDS011;25367;-35.352;149.036;2023-02-05T07:12:07;12.52;;;1.88;;
39694;SDS011;25367;-35.352;149.036;2023-02-05T07:14:36;10.48;;;1.00;;
39694;SDS011;25367;-35.352;149.036;2023-02-05T07:17:06;6.00;;;1.60;;
39694;SDS011;25367;-35.352;149.036;2023-02-05T07:19:36;10.32;;;1.48;;
39694;SDS011;25367;-35.352;149.036;2023-02-05T07:22:07;12.75;;;1.15;;
39694;SDS011;25367;-35.352;149.036;2023-02-05T07:24:39;5.07;;;1.10;;
39694;SDS011;25367;-35.352;149.036;2023-02-05T07:27:08;10.32;;;1.55;;
39694;SDS011;25367;-35.352;149.036;2023-02-05T07:29:37;10.38;;;1.38;;
39694;SDS011;25367;-35.352;149.036;2023-02-05T07:32:07;6.63;;;1.30;;
39694;SDS011;25367;-35.352;149.036;2023-02-05T07:34:36;6.60;;;1.10;;
39694;SDS011;25367;-35.352;149.036;2023-02-05T07:37:08;5.85;;;1.13;;
39694;SDS011;25367;-35.352;149.036;2023-02-05T07:39:38;5.90;;;0.98;;
39694;SDS011;25367;-35.352;149.036;2023-02-05T07:42:08;5.15;;;0.93;;
39694;SDS011;25367;-35.352;149.036;2023-02-05T07:44:44;8.60;;;1.40;;
39694;SDS011;25367;-35.352;149.036;2023-02-05T07:47:13;8.73;;;1.60;;
39694;SDS011;25367;-35.352;149.036;2023-02-05T07:49:43;6.07;;;1.05;;
39694;SDS011;25367;-35.352;149.036;2023-02-05T07:52:14;9.95;;;1.52;;
39694;SDS011;25367;-35.352;149.036;2023-02-05T07:54:44;7.70;;;1.25;;
39694;SDS011;25367;-35.352;149.036;2023-02-05T07:57:13;11.02;;;1.95;;
39694;SDS011;25367;-35.352;149.036;2023-02-05T07:59:42;13.15;;;1.10;;
39694;SDS011;25367;-35.352;149.036;2023-02-05T08:02:12;7.25;;;1.33;;
39694;SDS011;25367;-35.352;149.036;2023-02-05T08:04:41;11.25;;;1.02;;
39694;SDS011;25367;-35.352;149.036;2023-02-05T08:07:10;7.20;;;1.35;;
39694;SDS011;25367;-35.352;149.036;2023-02-05T08:09:43;4.38;;;1.10;;
39694;SDS011;25367;-35.352;149.036;2023-02-05T08:12:13;4.72;;;1.02;;
39694;SDS011;25367;-35.352;149.036;2023-02-05T08:14:42;11.80;;;1.35;;
39694;SDS011;25367;-35.352;149.036;2023-02-05T08:17:11;8.38;;;1.30;;
39694;SDS011;25367;-35.352;149.036;2023-02-05T08:19:41;6.72;;;1.05;;
39694;SDS011;25367;-35.352;149.036;2023-02-05T08:22:10;5.22;;;0.90;;
39694;SDS011;25367;-35.352;149.036;2023-02-05T08:24:42;7.32;;;1.00;;
39694;SDS011;25367;-35.352;149.036;2023-02-05T08:27:11;4.30;;;0.95;;
39694;SDS011;25367;-35.352;149.036;2023-02-05T08:29:40;5.68;;;0.80;;
39694;SDS011;25367;-35.352;149.036;2023-02-05T08:32:13;1.80;;;0.63;;
39694;SDS011;25367;-35.352;149.036;2023-02-05T08:34:42;3.78;;;0.90;;
39694;SDS011;25367;-35.352;149.036;2023-02-05T08:37:11;5.82;;;0.75;;
39694;SDS011;25367;-35.352;149.036;2023-02-05T08:39:43;6.55;;;1.13;;
39694;SDS011;25367;-35.352;149.036;2023-02-05T08:42:13;7.85;;;2.10;;
39694;SDS011;25367;-35.352;149.036;2023-02-05T08:44:43;9.10;;;3.35;;
39694;SDS011;25367;-35.352;149.036;2023-02-05T08:47:12;8.32;;;4.43;;
39694;SDS011;25367;-35.352;149.036;2023-02-05T08:49:45;10.80;;;4.90;;
39694;SDS011;25367;-35.352;149.036;2023-02-05T08:52:18;12.85;;;4.55;;
39694;SDS011;25367;-35.352;149.036;2023-02-05T08:54:50;12.85;;;5.18;;
39694;SDS011;25367;-35.352;149.036;2023-02-05T08:57:20;11.85;;;4.93;;
39694;SDS011;25367;-35.352;149.036;2023-02-05T09:02:22;8.93;;;4.95;;
39694;SDS011;25367;-35.352;149.036;2023-02-05T09:04:52;10.02;;;5.30;;
39694;SDS011;25367;-35.352;149.036;2023-02-05T09:07:21;10.88;;;4.60;;
39694;SDS011;25367;-35.352;149.036;2023-02-05T09:09:53;10.35;;;5.20;;
39694;SDS011;25367;-35.352;149.036;2023-02-05T09:12:23;10.75;;;4.43;;
39694;SDS011;25367;-35.352;149.036;2023-02-05T09:14:53;12.38;;;4.07;;
39694;SDS011;25367;-35.352;149.036;2023-02-05T09:17:22;10.10;;;4.35;;
39694;SDS011;25367;-35.352;149.036;2023-02-05T09:19:52;14.43;;;3.83;;
39694;SDS011;25367;-35.352;149.036;2023-02-05T09:22:22;9.38;;;3.83;;
39694;SDS011;25367;-35.352;149.036;2023-02-05T09:24:53;7.90;;;4.22;;
39694;SDS011;25367;-35.352;149.036;2023-02-05T09:27:23;8.68;;;3.90;;
39694;SDS011;25367;-35.352;149.036;2023-02-05T09:29:52;13.48;;;4.30;;
39694;SDS011;25367;-35.352;149.036;2023-02-05T09:32:22;7.22;;;3.67;;
39694;SDS011;25367;-35.352;149.036;2023-02-05T09:34:51;6.95;;;3.63;;
39694;SDS011;25367;-35.352;149.036;2023-02-05T09:37:20;14.07;;;3.90;;
39694;SDS011;25367;-35.352;149.036;2023-02-05T09:39:50;9.35;;;3.83;;
39694;SDS011;25367;-35.352;149.036;2023-02-05T09:42:24;9.45;;;3.45;;
39694;SDS011;25367;-35.352;149.036;2023-02-05T09:45:02;7.10;;;4.10;;
39694;SDS011;25367;-35.352;149.036;2023-02-05T09:47:43;8.43;;;3.57;;
39694;SDS011;25367;-35.352;149.036;2023-02-05T09:50:19;9.45;;;3.05;;
39694;SDS011;25367;-35.352;149.036;2023-02-05T09:52:50;9.20;;;3.22;;
39694;SDS011;25367;-35.352;149.036;2023-02-05T09:55:24;7.50;;;3.08;;
39694;SDS011;25367;-35.352;149.036;2023-02-05T09:58:02;5.75;;;2.70;;
39694;SDS011;25367;-35.352;149.036;2023-02-05T10:00:36;6.03;;;2.90;;
39694;SDS011;25367;-35.352;149.036;2023-02-05T10:03:15;8.52;;;2.88;;
39694;SDS011;25367;-35.352;149.036;2023-02-05T10:05:54;5.88;;;2.85;;
39694;SDS011;25367;-35.352;149.036;2023-02-05T10:08:35;8.98;;;3.00;;
39694;SDS011;25367;-35.352;149.036;2023-02-05T10:11:15;5.95;;;2.85;;
39694;SDS011;25367;-35.352;149.036;2023-02-05T10:16:40;8.95;;;2.75;;
39694;SDS011;25367;-35.352;149.036;2023-02-05T10:19:28;5.10;;;2.70;;
39694;SDS011;25367;-35.352;149.036;2023-02-05T10:24:59;7.28;;;3.30;;
39694;SDS011;25367;-35.352;149.036;2023-02-05T10:27:52;7.97;;;3.00;;
39694;SDS011;25367;-35.352;149.036;2023-02-05T10:30:29;6.55;;;2.70;;
39694;SDS011;25367;-35.352;149.036;2023-02-05T10:33:04;8.10;;;3.00;;
39694;SDS011;25367;-35.352;149.036;2023-02-05T10:35:41;8.57;;;2.90;;
39694;SDS011;25367;-35.352;149.036;2023-02-05T10:38:17;5.50;;;2.25;;
39694;SDS011;25367;-35.352;149.036;2023-02-05T10:40:50;6.75;;;2.80;;
39694;SDS011;25367;-35.352;149.036;2023-02-05T10:43:25;8.73;;;2.40;;
39694;SDS011;25367;-35.352;149.036;2023-02-05T10:45:59;7.68;;;2.50;;
39694;SDS011;25367;-35.352;149.036;2023-02-05T10:48:34;8.70;;;2.55;;
39694;SDS011;25367;-35.352;149.036;2023-02-05T10:51:07;5.60;;;2.28;;
39694;SDS011;25367;-35.352;149.036;2023-02-05T10:53:38;8.60;;;2.88;;
39694;SDS011;25367;-35.352;149.036;2023-02-05T10:56:10;9.07;;;2.88;;
39694;SDS011;25367;-35.352;149.036;2023-02-05T10:58:45;5.60;;;2.22;;
39694;SDS011;25367;-35.352;149.036;2023-02-05T11:01:19;3.85;;;2.10;;
39694;SDS011;25367;-35.352;149.036;2023-02-05T11:03:54;5.65;;;2.33;;
39694;SDS011;25367;-35.352;149.036;2023-02-05T11:06:28;6.75;;;2.33;;
39694;SDS011;25367;-35.352;149.036;2023-02-05T11:08:59;6.17;;;2.17;;
39694;SDS011;25367;-35.352;149.036;2023-02-05T11:11:29;4.80;;;1.83;;
39694;SDS011;25367;-35.352;149.036;2023-02-05T11:14:01;6.43;;;2.33;;
39694;SDS011;25367;-35.352;149.036;2023-02-05T11:16:37;8.55;;;2.58;;
39694;SDS011;25367;-35.352;149.036;2023-02-05T11:19:14;6.20;;;2.33;;
39694;SDS011;25367;-35.352;149.036;2023-02-05T11:21:47;8.35;;;2.55;;
39694;SDS011;25367;-35.352;149.036;2023-02-05T11:24:29;7.22;;;2.28;;
39694;SDS011;25367;-35.352;149.036;2023-02-05T11:29:58;5.85;;;2.58;;
39694;SDS011;25367;-35.352;149.036;2023-02-05T11:32:46;6.15;;;2.08;;
39694;SDS011;25367;-35.352;149.036;2023-02-05T11:35:19;6.57;;;2.40;;
39694;SDS011;25367;-35.352;149.036;2023-02-05T11:37:58;4.53;;;1.92;;
39694;SDS011;25367;-35.352;149.036;2023-02-05T11:40:34;7.72;;;2.30;;
39694;SDS011;25367;-35.352;149.036;2023-02-05T11:43:04;7.10;;;1.95;;
39694;SDS011;25367;-35.352;149.036;2023-02-05T11:45:46;5.75;;;2.38;;
39694;SDS011;25367;-35.352;149.036;2023-02-05T11:48:23;7.97;;;2.03;;
39694;SDS011;25367;-35.352;149.036;2023-02-05T11:51:09;5.35;;;1.90;;
39694;SDS011;25367;-35.352;149.036;2023-02-05T11:53:44;8.73;;;2.10;;
39694;SDS011;25367;-35.352;149.036;2023-02-05T11:56:18;4.55;;;1.75;;
39694;SDS011;25367;-35.352;149.036;2023-02-05T11:58:57;4.60;;;1.90;;
39694;SDS011;25367;-35.352;149.036;2023-02-05T12:01:30;5.13;;;2.00;;
39694;SDS011;25367;-35.352;149.036;2023-02-05T12:04:02;5.57;;;2.00;;
39694;SDS011;25367;-35.352;149.036;2023-02-05T12:06:44;5.78;;;1.88;;
39694;SDS011;25367;-35.352;149.036;2023-02-05T12:09:18;4.45;;;1.85;;
39694;SDS011;25367;-35.352;149.036;2023-02-05T12:11:51;5.10;;;2.03;;
39694;SDS011;25367;-35.352;149.036;2023-02-05T12:14:29;3.47;;;1.83;;
39694;SDS011;25367;-35.352;149.036;2023-02-05T12:17:16;7.00;;;2.30;;
39694;SDS011;25367;-35.352;149.036;2023-02-05T12:20:08;5.55;;;2.38;;
39694;SDS011;25367;-35.352;149.036;2023-02-05T12:22:52;4.18;;;1.70;;
39694;SDS011;25367;-35.352;149.036;2023-02-05T12:25:41;4.82;;;2.30;;
39694;SDS011;25367;-35.352;149.036;2023-02-05T12:28:21;7.68;;;2.70;;
39694;SDS011;25367;-35.352;149.036;2023-02-05T12:31:02;6.95;;;1.98;;
39694;SDS011;25367;-35.352;149.036;2023-02-05T12:33:46;5.80;;;2.13;;
39694;SDS011;25367;-35.352;149.036;2023-02-05T12:39:24;4.60;;;1.88;;
39694;SDS011;25367;-35.352;149.036;2023-02-05T12:42:06;5.32;;;2.20;;
39694;SDS011;25367;-35.352;149.036;2023-02-05T12:44:47;5.57;;;1.70;;
39694;SDS011;25367;-35.352;149.036;2023-02-05T12:47:32;7.43;;;1.88;;
39694;SDS011;25367;-35.352;149.036;2023-02-05T12:50:18;3.88;;;2.00;;
39694;SDS011;25367;-35.352;149.036;2023-02-05T12:53:11;5.35;;;1.83;;
39694;SDS011;25367;-35.352;149.036;2023-02-05T12:55:53;4.97;;;1.67;;
39694;SDS011;25367;-35.352;149.036;2023-02-05T12:58:40;5.75;;;2.03;;
39694;SDS011;25367;-35.352;149.036;2023-02-05T13:01:13;4.22;;;1.85;;
39694;SDS011;25367;-35.352;149.036;2023-02-05T13:03:47;5.68;;;2.00;;
39694;SDS011;25367;-35.352;149.036;2023-02-05T13:06:22;6.32;;;2.20;;
39694;SDS011;25367;-35.352;149.036;2023-02-05T13:08:55;6.13;;;1.92;;
39694;SDS011;25367;-35.352;149.036;2023-02-05T13:11:29;6.63;;;2.05;;
39694;SDS011;25367;-35.352;149.036;2023-02-05T13:14:02;5.57;;;2.03;;
39694;SDS011;25367;-35.352;149.036;2023-02-05T13:16:36;6.47;;;1.90;;
39694;SDS011;25367;-35.352;149.036;2023-02-05T13:19:13;5.80;;;1.88;;
39694;SDS011;25367;-35.352;149.036;2023-02-05T13:21:52;5.38;;;1.90;;
39694;SDS011;25367;-35.352;149.036;2023-02-05T13:24:29;5.03;;;1.73;;
39694;SDS011;25367;-35.352;149.036;2023-02-05T13:27:02;6.13;;;1.80;;
39694;SDS011;25367;-35.352;149.036;2023-02-05T13:29:43;5.18;;;1.83;;
39694;SDS011;25367;-35.352;149.036;2023-02-05T13:32:17;5.60;;;1.55;;
39694;SDS011;25367;-35.352;149.036;2023-02-05T13:34:50;5.68;;;1.95;;
39694;SDS011;25367;-35.352;149.036;2023-02-05T13:37:37;4.68;;;1.88;;
39694;SDS011;25367;-35.352;149.036;2023-02-05T13:40:28;4.32;;;1.35;;
39694;SDS011;25367;-35.352;149.036;2023-02-05T13:43:26;4.18;;;1.77;;
39694;SDS011;25367;-35.352;149.036;2023-02-05T13:49:07;4.43;;;1.73;;
39694;SDS011;25367;-35.352;149.036;2023-02-05T13:51:58;4.93;;;1.70;;
39694;SDS011;25367;-35.352;149.036;2023-02-05T13:58:18;4.40;;;1.63;;
39694;SDS011;25367;-35.352;149.036;2023-02-05T14:00:52;6.18;;;2.05;;
39694;SDS011;25367;-35.352;149.036;2023-02-05T14:03:27;6.55;;;1.55;;
39694;SDS011;25367;-35.352;149.036;2023-02-05T14:06:12;4.57;;;1.73;;
39694;SDS011;25367;-35.352;149.036;2023-02-05T14:08:44;4.93;;;1.67;;
39694;SDS011;25367;-35.352;149.036;2023-02-05T14:11:14;3.83;;;1.48;;
39694;SDS011;25367;-35.352;149.036;2023-02-05T14:13:50;5.65;;;1.83;;
39694;SDS011;25367;-35.352;149.036;2023-02-05T14:16:53;3.85;;;1.30;;
39694;SDS011;25367;-35.352;149.036;2023-02-05T14:19:25;5.03;;;1.50;;
39694;SDS011;25367;-35.352;149.036;2023-02-05T14:22:10;5.13;;;1.48;;
39694;SDS011;25367;-35.352;149.036;2023-02-05T14:24:59;3.90;;;1.60;;
39694;SDS011;25367;-35.352;149.036;2023-02-05T14:39:06;4.47;;;1.20;;
39694;SDS011;25367;-35.352;149.036;2023-02-05T14:41:49;3.55;;;1.52;;
39694;SDS011;25367;-35.352;149.036;2023-02-05T14:44:30;3.72;;;1.50;;
39694;SDS011;25367;-35.352;149.036;2023-02-05T14:47:06;3.28;;;1.10;;
39694;SDS011;25367;-35.352;149.036;2023-02-05T14:49:44;5.32;;;1.55;;
39694;SDS011;25367;-35.352;149.036;2023-02-05T14:52:22;3.15;;;1.40;;
39694;SDS011;25367;-35.352;149.036;2023-02-05T14:54:57;3.67;;;1.55;;
39694;SDS011;25367;-35.352;149.036;2023-02-05T14:57:32;4.88;;;1.30;;
39694;SDS011;25367;-35.352;149.036;2023-02-05T15:00:20;4.07;;;1.42;;
39694;SDS011;25367;-35.352;149.036;2023-02-05T15:02:58;2.65;;;0.90;;
39694;SDS011;25367;-35.352;149.036;2023-02-05T15:05:47;4.40;;;1.00;;
39694;SDS011;25367;-35.352;149.036;2023-02-05T15:08:21;2.67;;;1.05;;
39694;SDS011;25367;-35.352;149.036;2023-02-05T15:11:11;3.60;;;1.45;;
39694;SDS011;25367;-35.352;149.036;2023-02-05T15:16:46;7.20;;;1.40;;
39694;SDS011;25367;-35.352;149.036;2023-02-05T15:19:39;4.15;;;1.40;;